Portada
METAR-TAF:

METAR-TAF

Aeropuertos :

Bojnourd, Irán

latitud: 37-28N, longitud: 057-20E, altitud: 1074 m

Observación

El informe se hizo hace 38 minutos, a las 00:00 UTC
Viento 2 kt con dirección variable
Temperatura -1°C
Humedad 86%
Presión 1021 hPa
Visibilidad: 6000 m

METAR: OIMN 150000Z VRB02KT 6000 NSC M01/M03 Q1021

Hora: 04:08 (00:38 UTC)


TAF: falta

Observaciones y pronósticos meteorológicos de más de 4000 aeropuertos (mensajes METAR y TAF).

Los puntos amarillos y rojos representan las estaciones disponibles.

Ponga el ratón en el punto deseado para ver el nombre de la estación.

Haga clic para ver las observaciones y los pronósticos meteorológicos.

Para cambiar el mapa : haga clic en los botones verdes con una cruz de color negro para hacer un zoom, en el botón verde con un guión para alejar o en las flechas verdes para mapas adyacentes.


METAR-TAF: